createdAt,value
2018-02-21T00:01:34.069Z,99.90
2018-02-21T00:04:01.625Z,99.90
2018-02-21T00:06:29.157Z,99.90
2018-02-21T00:08:56.726Z,99.90
2018-02-21T00:11:24.316Z,99.90
2018-02-21T00:13:51.884Z,99.90
2018-02-21T00:16:19.436Z,99.90
2018-02-21T00:18:46.974Z,99.90
2018-02-21T00:21:14.543Z,99.90
2018-02-21T00:23:42.092Z,99.90
2018-02-21T00:26:09.661Z,99.90
2018-02-21T00:28:37.225Z,99.90
2018-02-21T00:31:04.789Z,99.90
2018-02-21T00:33:32.345Z,99.90
2018-02-21T00:35:59.912Z,99.90
2018-02-21T00:38:27.477Z,99.90
2018-02-21T00:40:55.059Z,99.90
2018-02-21T00:43:22.600Z,99.90
2018-02-21T00:45:50.162Z,99.90
2018-02-21T00:48:17.728Z,99.90
2018-02-21T00:50:46.817Z,99.90
2018-02-21T00:53:14.388Z,99.90
2018-02-21T00:55:41.928Z,99.90
2018-02-21T00:58:09.480Z,99.90
2018-02-21T01:00:37.032Z,99.90
2018-02-21T01:03:04.604Z,99.90
2018-02-21T01:05:32.153Z,99.90
2018-02-21T01:07:59.711Z,99.90
2018-02-21T01:10:27.235Z,99.90
2018-02-21T01:12:55.557Z,99.90
2018-02-21T01:15:23.089Z,99.90
2018-02-21T01:17:50.649Z,99.90
2018-02-21T01:20:18.209Z,99.90
2018-02-21T01:22:45.793Z,99.90
2018-02-21T01:25:13.333Z,99.90
2018-02-21T01:27:40.898Z,99.90
2018-02-21T01:30:08.485Z,99.90
2018-02-21T01:32:36.049Z,99.90
2018-02-21T01:35:03.602Z,99.90
2018-02-21T01:37:31.152Z,99.90
2018-02-21T01:39:58.747Z,99.90
2018-02-21T01:42:26.292Z,99.90
2018-02-21T01:44:53.851Z,99.90
2018-02-21T01:47:21.408Z,99.90
2018-02-21T01:49:48.953Z,99.90
2018-02-21T01:52:16.503Z,99.90
2018-02-21T01:54:44.096Z,99.90
2018-02-21T01:57:11.652Z,99.90
2018-02-21T01:59:39.217Z,99.90
2018-02-21T02:02:06.784Z,99.90
2018-02-21T02:04:34.332Z,99.90
2018-02-21T02:07:01.889Z,99.90
2018-02-21T02:09:29.444Z,99.90
2018-02-21T02:11:57.186Z,99.90
2018-02-21T02:14:24.746Z,99.90
2018-02-21T02:16:52.292Z,99.90
2018-02-21T02:19:19.847Z,99.90
2018-02-21T02:21:47.401Z,99.90
2018-02-21T02:24:15.726Z,99.90
2018-02-21T02:26:43.280Z,99.90
2018-02-21T02:29:10.834Z,99.90
2018-02-21T02:31:38.389Z,99.90
2018-02-21T02:34:05.928Z,99.90
2018-02-21T02:36:33.498Z,99.90
2018-02-21T02:39:12.937Z,99.90
2018-02-21T02:41:40.540Z,99.90
2018-02-21T02:44:08.085Z,99.90
2018-02-21T02:46:35.629Z,99.90
2018-02-21T02:49:03.208Z,99.90
2018-02-21T02:51:30.750Z,99.90
2018-02-21T02:53:58.310Z,99.90
2018-02-21T02:56:25.878Z,99.90
2018-02-21T02:58:53.442Z,99.90
2018-02-21T03:01:20.981Z,99.90
2018-02-21T03:03:48.525Z,99.90
2018-02-21T03:06:16.084Z,99.90
2018-02-21T03:08:43.646Z,99.90
2018-02-21T03:11:11.200Z,99.90
2018-02-21T03:13:39.503Z,99.90
2018-02-21T03:16:07.063Z,99.90
2018-02-21T03:18:34.622Z,99.90
2018-02-21T03:21:02.186Z,99.90
2018-02-21T03:23:29.740Z,99.90
2018-02-21T03:25:57.305Z,99.90
2018-02-21T03:28:24.854Z,99.90
2018-02-21T03:30:52.414Z,99.90
2018-02-21T03:33:19.969Z,99.90
2018-02-21T03:35:47.536Z,99.90
2018-02-21T03:38:15.087Z,99.90
2018-02-21T03:40:42.651Z,99.90
2018-02-21T03:43:10.203Z,99.90
2018-02-21T03:45:37.760Z,99.90
2018-02-21T03:48:05.324Z,99.90
2018-02-21T03:50:32.872Z,99.90
2018-02-21T03:53:01.197Z,99.90
2018-02-21T03:55:28.740Z,99.90
2018-02-21T03:57:56.304Z,99.90
2018-02-21T04:00:23.844Z,99.90
2018-02-21T04:02:51.410Z,99.90
2018-02-21T04:05:18.968Z,99.90
2018-02-21T04:07:46.509Z,99.90
2018-02-21T04:10:14.822Z,99.90
2018-02-21T04:12:42.404Z,99.90
2018-02-21T04:15:09.958Z,99.90
2018-02-21T04:17:37.555Z,99.90
2018-02-21T04:20:05.881Z,99.90
2018-02-21T04:22:33.456Z,99.90
2018-02-21T04:25:01.012Z,99.90
2018-02-21T04:27:28.561Z,99.90
2018-02-21T04:29:56.105Z,99.90
2018-02-21T04:32:23.654Z,99.90
2018-02-21T04:34:51.220Z,99.90
2018-02-21T04:37:18.780Z,99.90
2018-02-21T04:39:46.336Z,99.90
2018-02-21T04:42:13.872Z,99.90
2018-02-21T04:44:42.193Z,99.90
2018-02-21T04:47:09.752Z,99.90
2018-02-21T04:49:37.285Z,99.90
2018-02-21T04:52:05.600Z,99.90
2018-02-21T05:07:53.132Z,99.90
2018-02-21T05:10:20.688Z,99.90
2018-02-21T05:12:48.245Z,99.90
2018-02-21T05:15:15.785Z,99.90
2018-02-21T05:17:43.353Z,99.90
2018-02-21T05:20:10.920Z,99.90
2018-02-21T05:22:38.489Z,99.90
2018-02-21T05:25:06.029Z,99.90
2018-02-21T05:27:33.583Z,99.90
2018-02-21T05:30:01.149Z,99.90
2018-02-21T05:32:28.702Z,99.90
2018-02-21T05:34:56.247Z,99.90
2018-02-21T05:37:23.823Z,99.90
2018-02-21T05:39:51.353Z,99.90
2018-02-21T05:42:18.921Z,99.90
2018-02-21T05:44:46.465Z,99.90
2018-02-21T05:47:14.796Z,99.90
2018-02-21T05:49:42.340Z,99.90
2018-02-21T05:52:10.005Z,99.90
2018-02-21T05:54:38.452Z,99.90
2018-02-21T05:57:06.801Z,99.90
2018-02-21T05:59:34.339Z,99.90
2018-02-21T06:02:01.888Z,99.90
2018-02-21T06:04:29.428Z,99.90
2018-02-21T06:06:56.989Z,99.90
2018-02-21T06:09:24.565Z,99.90
2018-02-21T06:11:52.128Z,99.90
2018-02-21T06:14:19.691Z,99.90
2018-02-21T06:16:48.165Z,99.90
2018-02-21T06:19:15.711Z,99.90
2018-02-21T06:21:43.264Z,99.90
2018-02-21T06:24:10.795Z,99.90
2018-02-21T06:26:39.101Z,99.90
2018-02-21T06:29:06.700Z,99.90
2018-02-21T06:31:34.252Z,99.90
2018-02-21T06:34:01.817Z,99.90
2018-02-21T06:36:29.358Z,99.90
2018-02-21T06:38:56.929Z,99.90
2018-02-21T06:41:24.467Z,99.90
2018-02-21T06:43:52.050Z,99.90
2018-02-21T06:46:19.601Z,99.90
2018-02-21T06:48:47.166Z,99.90
2018-02-21T06:51:14.714Z,99.90
2018-02-21T06:53:42.283Z,99.90
2018-02-21T06:56:09.845Z,99.90
2018-02-21T06:58:37.378Z,99.90
2018-02-21T07:01:05.704Z,99.90
2018-02-21T07:03:33.239Z,99.90
2018-02-21T07:06:00.797Z,99.90
2018-02-21T07:08:28.809Z,99.90
2018-02-21T07:10:56.373Z,99.90
2018-02-21T07:13:23.912Z,99.90
2018-02-21T07:15:52.254Z,99.90
2018-02-21T07:18:19.797Z,99.90
2018-02-21T07:20:47.335Z,99.90
2018-02-21T07:23:14.898Z,99.90
2018-02-21T07:25:42.434Z,99.90
2018-02-21T07:28:10.003Z,99.90
2018-02-21T07:30:37.549Z,99.90
2018-02-21T07:33:05.117Z,99.90
2018-02-21T07:35:32.696Z,99.90
2018-02-21T07:38:00.281Z,99.90
2018-02-21T07:40:28.597Z,99.90
2018-02-21T07:42:56.177Z,99.90
2018-02-21T07:45:23.746Z,99.90
2018-02-21T07:47:51.305Z,99.90
2018-02-21T07:50:18.884Z,99.90
2018-02-21T07:52:46.445Z,99.90
2018-02-21T07:55:14.006Z,99.90
2018-02-21T07:57:41.546Z,99.90
2018-02-21T08:00:09.129Z,99.90
2018-02-21T08:02:37.451Z,99.90
2018-02-21T08:05:05.116Z,99.90
2018-02-21T08:07:32.715Z,99.90
2018-02-21T08:10:00.258Z,99.90
2018-02-21T08:12:29.109Z,99.90
2018-02-21T08:14:56.675Z,99.90
2018-02-21T08:17:24.256Z,99.90
2018-02-21T08:19:51.808Z,99.90
2018-02-21T08:22:19.364Z,99.90
2018-02-21T08:24:46.932Z,99.90
2018-02-21T08:27:14.491Z,99.90
2018-02-21T08:29:42.116Z,99.90
2018-02-21T08:32:10.428Z,99.90
2018-02-21T08:34:38.053Z,99.90
2018-02-21T08:37:05.590Z,99.90
2018-02-21T08:39:33.171Z,99.90
2018-02-21T08:42:01.502Z,99.90
2018-02-21T08:44:29.068Z,99.90
2018-02-21T08:46:56.639Z,99.90
2018-02-21T08:49:24.213Z,99.90
2018-02-21T08:51:51.786Z,99.90
2018-02-21T08:54:20.132Z,99.90
2018-02-21T08:56:47.681Z,99.90
2018-02-21T08:59:15.257Z,99.90
2018-02-21T09:01:42.818Z,99.90
2018-02-21T09:04:10.398Z,99.90
2018-02-21T09:06:38.746Z,99.90
2018-02-21T09:09:06.305Z,99.90
2018-02-21T09:11:33.893Z,99.90
2018-02-21T09:14:02.250Z,99.90
2018-02-21T09:16:29.865Z,99.90
2018-02-21T09:18:57.422Z,99.90
2018-02-21T09:21:24.989Z,99.90
2018-02-21T09:23:52.537Z,99.90
2018-02-21T09:26:20.121Z,99.90
2018-02-21T09:28:47.707Z,99.90
2018-02-21T09:31:15.283Z,99.90
2018-02-21T09:33:42.822Z,99.90
2018-02-21T09:36:10.374Z,99.90
2018-02-21T09:38:37.982Z,99.90
2018-02-21T09:41:06.328Z,99.90
2018-02-21T09:43:33.909Z,99.90
2018-02-21T09:46:02.241Z,99.90
2018-02-21T09:48:29.785Z,99.90
2018-02-21T09:50:57.354Z,99.90
2018-02-21T09:53:24.924Z,99.90
2018-02-21T09:55:52.500Z,99.90
2018-02-21T09:58:20.048Z,99.90
2018-02-21T10:00:47.615Z,99.90
2018-02-21T10:03:15.164Z,99.90
2018-02-21T10:05:42.738Z,99.90
2018-02-21T10:08:10.310Z,99.90
2018-02-21T10:10:37.940Z,99.90
2018-02-21T10:13:05.470Z,99.90
2018-02-21T10:15:33.816Z,99.90
2018-02-21T10:18:01.389Z,99.90
2018-02-21T10:20:28.932Z,99.90
2018-02-21T10:22:56.521Z,99.90
2018-02-21T10:25:24.894Z,99.90
2018-02-21T10:27:53.245Z,99.90
2018-02-21T10:30:20.802Z,99.90
2018-02-21T10:32:48.848Z,99.90
2018-02-21T10:35:16.413Z,99.90
2018-02-21T10:37:43.991Z,99.90
2018-02-21T10:40:11.560Z,99.90
2018-02-21T10:42:39.126Z,99.90
2018-02-21T10:45:06.682Z,99.90
2018-02-21T10:47:34.254Z,99.90
2018-02-21T10:50:01.825Z,99.90
2018-02-21T10:52:30.149Z,99.90
2018-02-21T10:54:57.724Z,99.90
2018-02-21T10:57:25.273Z,99.90
2018-02-21T10:59:52.838Z,99.90
2018-02-21T11:02:20.400Z,99.90
2018-02-21T11:04:47.985Z,99.90
2018-02-21T11:07:15.542Z,99.90
2018-02-21T11:09:43.109Z,99.90
2018-02-21T11:12:10.645Z,99.90
2018-02-21T11:14:38.225Z,99.90
2018-02-21T11:17:05.785Z,99.90
2018-02-21T11:19:33.335Z,99.90
2018-02-21T11:22:00.917Z,99.90
2018-02-21T11:24:29.238Z,99.90
2018-02-21T11:26:57.101Z,99.90
2018-02-21T11:29:24.682Z,99.90
2018-02-21T11:31:52.246Z,99.90
2018-02-21T11:34:19.834Z,99.90
2018-02-21T11:36:47.402Z,99.90
2018-02-21T11:39:14.992Z,99.90
2018-02-21T11:41:42.540Z,99.90
2018-02-21T11:44:10.883Z,99.90
2018-02-21T11:46:38.435Z,99.90
2018-02-21T11:49:05.993Z,99.90
2018-02-21T11:51:33.548Z,99.90
2018-02-21T11:54:01.112Z,99.90
2018-02-21T11:56:28.680Z,99.90
2018-02-21T11:58:57.041Z,99.90
2018-02-21T12:01:24.610Z,99.50
2018-02-21T12:03:52.179Z,99.90
2018-02-21T12:06:19.748Z,99.30
2018-02-21T12:08:48.086Z,90.50
2018-02-21T12:11:15.621Z,90.30
2018-02-21T12:13:43.958Z,83.80
2018-02-21T12:16:11.552Z,83.90
2018-02-21T12:18:39.878Z,87.80
2018-02-21T12:21:07.449Z,87.70
2018-02-21T12:23:35.031Z,76.50
2018-02-21T12:26:02.846Z,73.20
2018-02-21T12:28:30.449Z,72.80
2018-02-21T12:30:57.993Z,73.30
2018-02-21T12:33:25.592Z,73.20
2018-02-21T12:35:53.914Z,70.00
2018-02-21T12:38:21.517Z,69.90
2018-02-21T12:40:55.564Z,64.40
2018-02-21T12:43:23.122Z,64.40
2018-02-21T12:45:50.696Z,66.50
2018-02-21T12:48:18.261Z,66.10
2018-02-21T12:50:45.826Z,67.70
2018-02-21T12:53:13.413Z,69.40
2018-02-21T12:55:40.974Z,67.40
2018-02-21T12:58:08.539Z,69.00
2018-02-21T13:00:36.100Z,69.30
2018-02-21T13:03:03.706Z,66.80
2018-02-21T13:05:31.288Z,65.70
2018-02-21T13:07:58.868Z,62.90
2018-02-21T13:10:26.426Z,59.20
2018-02-21T13:12:54.019Z,56.90
2018-02-21T13:15:21.736Z,56.30
2018-02-21T13:17:49.308Z,56.10
2018-02-21T13:20:16.854Z,53.70
2018-02-21T13:22:44.437Z,52.90
2018-02-21T13:25:12.560Z,52.40
2018-02-21T13:27:40.901Z,52.00
2018-02-21T13:30:08.514Z,52.00
2018-02-21T13:32:36.072Z,50.50
2018-02-21T13:35:03.690Z,48.60
2018-02-21T13:37:31.271Z,48.90
2018-02-21T13:39:59.656Z,48.50
2018-02-21T13:42:27.974Z,48.40
2018-02-21T13:44:55.547Z,48.30
2018-02-21T13:47:23.106Z,50.20
2018-02-21T13:49:50.686Z,48.20
2018-02-21T13:52:18.238Z,49.30
2018-02-21T13:54:45.798Z,47.20
2018-02-21T13:57:13.350Z,46.90
2018-02-21T13:59:40.926Z,47.40
2018-02-21T14:02:08.481Z,46.10
2018-02-21T14:04:36.108Z,44.40
2018-02-21T14:07:03.694Z,46.20
2018-02-21T14:09:31.248Z,46.00
2018-02-21T14:12:00.759Z,46.40
2018-02-21T14:14:28.325Z,47.30
2018-02-21T14:16:55.885Z,47.00
2018-02-21T14:19:23.455Z,47.30
2018-02-21T14:21:51.045Z,48.00
2018-02-21T14:24:18.638Z,48.10
2018-02-21T14:26:46.219Z,47.10
2018-02-21T14:29:13.768Z,45.90
2018-02-21T14:31:41.350Z,47.20
2018-02-21T14:34:08.905Z,47.50
2018-02-21T14:36:36.485Z,44.40
2018-02-21T14:39:04.062Z,46.70
2018-02-21T14:41:32.428Z,47.80
2018-02-21T14:44:00.754Z,47.00
2018-02-21T14:46:28.341Z,46.90
2018-02-21T14:48:55.909Z,47.90
2018-02-21T14:51:23.489Z,48.60
2018-02-21T14:53:51.819Z,51.20
2018-02-21T14:56:19.392Z,51.20
2018-02-21T14:58:47.459Z,52.40
2018-02-21T15:01:15.013Z,52.90
2018-02-21T15:03:42.606Z,54.10
2018-02-21T15:06:10.198Z,55.20
2018-02-21T15:08:38.534Z,58.00
2018-02-21T15:11:06.094Z,58.00
2018-02-21T15:13:33.682Z,59.30
2018-02-21T15:16:02.005Z,59.50
2018-02-21T15:18:29.613Z,59.50
2018-02-21T15:20:57.158Z,58.10
2018-02-21T15:23:24.767Z,58.00
2018-02-21T15:25:53.046Z,60.50
2018-02-21T15:28:20.672Z,60.30
2018-02-21T15:30:48.246Z,62.50
2018-02-21T15:33:16.583Z,61.90
2018-02-21T15:35:44.134Z,61.80
2018-02-21T15:38:11.688Z,64.20
2018-02-21T15:40:39.293Z,64.00
2018-02-21T15:43:07.677Z,64.30
2018-02-21T15:45:36.045Z,66.10
2018-02-21T15:48:03.613Z,66.00
2018-02-21T15:50:31.185Z,64.80
2018-02-21T15:52:59.497Z,64.40
2018-02-21T15:55:27.081Z,64.40
2018-02-21T15:57:54.643Z,66.50
2018-02-21T16:00:22.237Z,69.00
2018-02-21T16:02:50.576Z,71.40
2018-02-21T16:05:18.138Z,71.40
2018-02-21T16:07:45.698Z,73.90
2018-02-21T16:10:13.269Z,81.30
2018-02-21T16:12:40.822Z,92.30
2018-02-21T16:15:08.432Z,91.10
2018-02-21T16:17:36.015Z,96.70
2018-02-21T16:20:04.047Z,99.90
2018-02-21T16:22:32.798Z,99.90
2018-02-21T16:25:00.357Z,99.90
2018-02-21T16:27:27.927Z,99.90
2018-02-21T16:29:55.471Z,99.90
2018-02-21T16:32:23.068Z,99.90
2018-02-21T16:34:51.392Z,99.90
2018-02-21T16:37:18.974Z,99.90
2018-02-21T16:39:46.531Z,99.90
2018-02-21T16:42:14.129Z,99.90
2018-02-21T16:44:42.488Z,99.90
2018-02-21T16:47:10.042Z,99.90
2018-02-21T16:49:37.635Z,99.90
2018-02-21T16:52:05.966Z,99.90
2018-02-21T16:54:37.566Z,99.90
2018-02-21T16:57:05.893Z,99.90
2018-02-21T16:59:33.506Z,99.90
2018-02-21T17:02:01.822Z,99.90
2018-02-21T17:04:29.394Z,99.90
2018-02-21T17:06:56.934Z,99.90
2018-02-21T17:09:24.518Z,99.90
2018-02-21T17:11:52.098Z,99.90
2018-02-21T17:14:19.686Z,99.90
2018-02-21T17:16:48.027Z,99.90
2018-02-21T17:19:15.597Z,99.90
2018-02-21T17:21:43.189Z,99.90
2018-02-21T17:24:11.552Z,99.90
2018-02-21T17:26:40.008Z,99.90
2018-02-21T17:29:07.561Z,99.90
2018-02-21T17:31:35.124Z,99.90
2018-02-21T17:34:02.694Z,99.90
2018-02-21T17:36:30.259Z,99.90
2018-02-21T17:38:57.873Z,99.90
2018-02-21T17:41:31.093Z,99.90
2018-02-21T17:43:58.641Z,99.90
2018-02-21T17:46:26.205Z,99.90
2018-02-21T17:48:53.844Z,99.90
2018-02-21T17:51:21.406Z,99.90
2018-02-21T17:53:49.039Z,99.90
2018-02-21T17:56:17.401Z,99.90
2018-02-21T17:58:44.974Z,99.90
2018-02-21T18:01:13.319Z,99.90
2018-02-21T18:03:40.923Z,99.90
2018-02-21T18:06:09.270Z,99.90
2018-02-21T18:08:36.908Z,99.90
2018-02-21T18:11:04.481Z,99.90
2018-02-21T18:13:32.049Z,99.90
2018-02-21T18:15:59.651Z,99.90
2018-02-21T18:18:28.045Z,99.90
2018-02-21T18:20:56.750Z,99.90
2018-02-21T18:23:24.318Z,99.90
2018-02-21T18:25:51.909Z,99.90
2018-02-21T18:28:19.513Z,99.90
2018-02-21T18:30:47.455Z,99.90
2018-02-21T18:33:15.810Z,99.90
2018-02-21T18:35:43.397Z,99.90
2018-02-21T18:38:11.717Z,99.90
2018-02-21T18:40:39.280Z,99.90
2018-02-21T18:43:06.887Z,99.90
2018-02-21T18:45:34.450Z,99.90
2018-02-21T18:48:02.230Z,99.90
2018-02-21T18:50:30.573Z,99.90
2018-02-21T18:52:58.185Z,99.90
2018-02-21T18:55:25.814Z,99.90
2018-02-21T18:57:54.170Z,99.90
2018-02-21T19:00:21.740Z,99.90
2018-02-21T19:02:49.477Z,99.90
2018-02-21T19:05:17.029Z,99.90
2018-02-21T19:07:44.606Z,99.90
2018-02-21T19:10:12.252Z,99.90
2018-02-21T19:12:39.854Z,99.90
2018-02-21T19:15:07.438Z,99.90
2018-02-21T19:17:35.761Z,99.90
2018-02-21T19:20:03.367Z,99.90
2018-02-21T19:22:31.714Z,99.90
2018-02-21T19:24:59.294Z,99.90
2018-02-21T19:27:26.845Z,99.90
2018-02-21T19:29:54.450Z,99.90
2018-02-21T19:32:22.022Z,99.90
2018-02-21T19:34:49.622Z,99.90
2018-02-21T19:37:17.240Z,99.90
2018-02-21T19:39:45.552Z,99.90
2018-02-21T19:42:13.121Z,99.90
2018-02-21T19:44:40.718Z,99.90
2018-02-21T19:47:09.074Z,99.90
2018-02-21T19:49:37.244Z,99.90
2018-02-21T19:52:04.800Z,99.90
2018-02-21T19:54:32.371Z,99.90
2018-02-21T19:56:59.983Z,99.90
2018-02-21T19:59:27.605Z,99.90
2018-02-21T20:01:55.949Z,99.90
2018-02-21T20:04:23.534Z,99.90
2018-02-21T20:06:51.128Z,99.90
2018-02-21T20:09:18.733Z,99.90
2018-02-21T20:11:46.305Z,99.90
2018-02-21T20:14:13.902Z,99.90
2018-02-21T20:16:41.503Z,99.90
2018-02-21T20:19:09.080Z,99.90
2018-02-21T20:21:36.679Z,99.90
2018-02-21T20:24:05.138Z,99.90
2018-02-21T20:26:32.767Z,99.90
2018-02-21T20:29:00.333Z,99.90
2018-02-21T20:31:27.919Z,99.90
2018-02-21T20:33:55.493Z,99.90
2018-02-21T20:36:23.850Z,99.90
2018-02-21T20:38:51.423Z,99.90
2018-02-21T20:41:19.768Z,99.90
2018-02-21T20:43:47.365Z,99.90
2018-02-21T20:46:15.714Z,99.90
2018-02-21T20:48:43.293Z,99.90
2018-02-21T20:51:11.634Z,99.90
2018-02-21T20:53:39.195Z,99.90
2018-02-21T20:56:06.783Z,99.90
2018-02-21T20:58:34.374Z,99.90
2018-02-21T21:01:02.744Z,99.90
2018-02-21T21:03:31.138Z,99.90
2018-02-21T21:05:59.468Z,99.90
2018-02-21T21:08:27.035Z,99.90
2018-02-21T21:10:54.597Z,99.90
2018-02-21T21:13:22.163Z,99.90
2018-02-21T21:15:49.739Z,99.90
2018-02-21T21:18:18.086Z,99.90
2018-02-21T21:20:45.628Z,99.90
2018-02-21T21:23:13.224Z,99.90
2018-02-21T21:25:40.776Z,99.90
2018-02-21T21:28:08.355Z,99.90
2018-02-21T21:30:35.940Z,99.90
2018-02-21T21:33:04.249Z,99.90
2018-02-21T21:35:31.823Z,99.90
2018-02-21T21:37:59.416Z,99.90
2018-02-21T21:40:26.985Z,99.90
2018-02-21T21:42:55.317Z,99.90
2018-02-21T21:45:22.933Z,99.90
2018-02-21T21:47:51.252Z,99.90
2018-02-21T21:50:18.875Z,99.90
2018-02-21T21:52:47.201Z,99.90
2018-02-21T21:55:14.764Z,99.90
2018-02-21T21:57:42.404Z,99.90
2018-02-21T22:00:09.969Z,99.90
2018-02-21T22:02:37.556Z,99.90
2018-02-21T22:05:05.104Z,99.90
2018-02-21T22:07:32.680Z,99.90
2018-02-21T22:10:00.242Z,99.90
2018-02-21T22:12:27.836Z,99.90
2018-02-21T22:14:55.417Z,99.90
2018-02-21T22:17:23.038Z,99.90
2018-02-21T22:19:50.622Z,99.90
2018-02-21T22:22:18.214Z,99.90
2018-02-21T22:24:45.756Z,99.90
2018-02-21T22:27:13.320Z,99.90
2018-02-21T22:29:40.889Z,99.90
2018-02-21T22:32:08.448Z,99.90
2018-02-21T22:34:36.060Z,99.90
2018-02-21T22:37:03.634Z,99.90
2018-02-21T22:39:31.959Z,99.90
2018-02-21T22:41:59.528Z,99.90
2018-02-21T22:44:27.136Z,99.90
2018-02-21T22:46:55.477Z,99.90
2018-02-21T22:49:23.081Z,99.90
2018-02-21T22:51:50.633Z,99.90
2018-02-21T22:54:19.020Z,99.90
2018-02-21T22:56:47.361Z,99.90
2018-02-21T22:59:14.945Z,99.90
2018-02-21T23:01:43.280Z,99.90
2018-02-21T23:04:10.839Z,99.90
2018-02-21T23:06:38.426Z,99.90
2018-02-21T23:09:05.968Z,99.90
2018-02-21T23:11:34.330Z,99.90
2018-02-21T23:14:01.886Z,99.90
2018-02-21T23:16:29.448Z,99.90
2018-02-21T23:18:57.016Z,99.90
2018-02-21T23:21:24.581Z,99.90
2018-02-21T23:23:52.133Z,99.90
2018-02-21T23:26:19.729Z,99.90
2018-02-21T23:28:47.312Z,99.90
2018-02-21T23:31:15.649Z,99.90
2018-02-21T23:33:43.219Z,99.90
2018-02-21T23:36:10.769Z,99.90
2018-02-21T23:38:38.330Z,99.90
2018-02-21T23:41:05.904Z,99.90
2018-02-21T23:43:34.985Z,99.90
2018-02-21T23:46:02.597Z,99.90
2018-02-21T23:48:30.164Z,99.90
2018-02-21T23:50:57.746Z,99.90
2018-02-21T23:53:25.306Z,99.90
2018-02-21T23:55:52.883Z,99.90
2018-02-21T23:58:20.431Z,99.90
